createdAt,value
2017-08-24T00:00:38.086Z,10.82
2017-08-24T00:03:28.975Z,10.52
2017-08-24T00:26:38.607Z,10.52
2017-08-24T00:49:09.345Z,10.55
2017-08-24T01:00:23.732Z,10.57
2017-08-24T01:47:29.486Z,10.30
2017-08-24T02:10:13.460Z,10.45
2017-08-24T02:24:48.966Z,10.40
2017-08-24T02:39:22.465Z,10.35
2017-08-24T02:41:59.136Z,10.32
2017-08-24T02:47:39.350Z,10.45
2017-08-24T03:53:38.335Z,10.52
2017-08-24T03:56:05.787Z,10.68
2017-08-24T03:58:33.243Z,10.45
2017-08-24T04:01:00.687Z,10.07
2017-08-24T04:03:28.128Z,10.40
2017-08-24T04:05:55.575Z,11.30
2017-08-24T04:08:23.031Z,10.52
2017-08-24T04:10:50.466Z,10.27
2017-08-24T04:13:17.919Z,9.82
2017-08-24T04:15:45.359Z,10.05
2017-08-24T04:18:12.808Z,10.27
2017-08-24T04:20:40.253Z,9.90
2017-08-24T04:23:07.699Z,10.30
2017-08-24T04:25:35.143Z,9.23
2017-08-24T04:28:02.588Z,9.40
2017-08-24T04:30:30.031Z,8.95
2017-08-24T04:32:57.475Z,8.70
2017-08-24T04:35:24.917Z,9.02
2017-08-24T04:37:52.367Z,8.38
2017-08-24T04:40:19.808Z,8.60
2017-08-24T04:42:47.259Z,9.27
2017-08-24T04:45:14.705Z,8.20
2017-08-24T04:47:42.155Z,7.40
2017-08-24T04:50:09.600Z,8.00
2017-08-24T05:37:54.215Z,5.40
2017-08-24T05:40:21.659Z,6.10
2017-08-24T05:42:49.108Z,7.87
2017-08-24T05:45:16.559Z,5.73
2017-08-24T05:47:44.059Z,6.10
2017-08-24T05:50:11.512Z,6.73
2017-08-24T05:52:38.950Z,6.83
2017-08-24T05:55:06.396Z,6.40
2017-08-24T05:57:33.826Z,5.77
2017-08-24T06:00:01.276Z,5.97
2017-08-24T06:02:28.711Z,5.60
2017-08-24T06:04:56.160Z,9.27
2017-08-24T06:07:23.627Z,6.53
2017-08-24T06:09:51.068Z,6.93
2017-08-24T06:12:18.502Z,4.80
2017-08-24T06:14:45.939Z,5.00
2017-08-24T06:17:13.387Z,5.07
2017-08-24T06:19:40.826Z,5.10
2017-08-24T06:22:08.267Z,6.00
2017-08-24T06:24:35.719Z,4.30
2017-08-24T06:27:03.143Z,4.50
2017-08-24T06:29:30.586Z,4.70
2017-08-24T06:31:58.025Z,5.00
2017-08-24T06:34:25.564Z,4.30
2017-08-24T06:36:52.996Z,4.80
2017-08-24T06:39:20.439Z,4.70
2017-08-24T06:41:47.908Z,4.50
2017-08-24T06:44:15.340Z,5.87
2017-08-24T06:46:42.824Z,5.60
2017-08-24T06:49:10.276Z,5.47
2017-08-24T06:51:37.715Z,6.70
2017-08-24T06:54:05.157Z,4.40
2017-08-24T06:56:32.599Z,4.60
2017-08-24T06:59:00.031Z,4.10
2017-08-24T07:01:27.477Z,4.10
2017-08-24T07:03:54.908Z,3.93
2017-08-24T07:06:22.347Z,3.80
2017-08-24T07:08:49.795Z,4.10
2017-08-24T07:11:17.237Z,4.30
2017-08-24T07:13:44.667Z,3.93
2017-08-24T07:16:12.110Z,5.50
2017-08-24T07:18:39.535Z,5.47
2017-08-24T07:21:06.984Z,5.20
2017-08-24T07:23:34.421Z,5.70
2017-08-24T07:26:01.859Z,4.47
2017-08-24T07:28:29.286Z,4.20
2017-08-24T07:30:56.731Z,4.00
2017-08-24T07:33:24.159Z,3.97
2017-08-24T07:35:51.595Z,3.97
2017-08-24T07:38:19.032Z,4.07
2017-08-24T07:40:46.468Z,4.27
2017-08-24T07:43:13.927Z,4.33
2017-08-24T07:45:41.365Z,3.50
2017-08-24T07:48:08.808Z,4.40
2017-08-24T07:50:36.240Z,4.17
2017-08-24T07:53:03.681Z,4.10
2017-08-24T07:55:31.115Z,3.50
2017-08-24T07:57:58.554Z,3.97
2017-08-24T08:00:26.010Z,3.70
2017-08-24T08:02:53.445Z,3.97
2017-08-24T08:05:20.878Z,4.47
2017-08-24T08:07:48.316Z,4.00
2017-08-24T08:10:15.751Z,4.13
2017-08-24T08:12:43.185Z,3.77
2017-08-24T08:15:10.617Z,4.57
2017-08-24T08:17:38.051Z,4.33
2017-08-24T08:20:05.485Z,4.07
2017-08-24T08:22:32.925Z,4.07
2017-08-24T08:25:00.358Z,3.50
2017-08-24T08:27:27.792Z,4.27
2017-08-24T08:29:55.218Z,5.40
2017-08-24T08:32:22.675Z,4.50
2017-08-24T08:34:50.139Z,4.60
2017-08-24T08:37:17.606Z,4.70
2017-08-24T08:39:45.050Z,4.73
2017-08-24T08:42:12.505Z,5.27
2017-08-24T08:44:39.948Z,5.73
2017-08-24T08:47:07.385Z,4.50
2017-08-24T08:49:34.882Z,5.90
2017-08-24T08:52:02.315Z,5.07
2017-08-24T08:54:29.760Z,5.27
2017-08-24T08:56:57.214Z,5.33
2017-08-24T08:59:24.705Z,5.80
2017-08-24T09:01:52.136Z,5.90
2017-08-24T09:04:19.577Z,5.03
2017-08-24T09:06:47.009Z,5.57
2017-08-24T09:09:14.461Z,5.10
2017-08-24T09:11:41.893Z,5.67
2017-08-24T09:14:09.347Z,5.00
2017-08-24T09:16:36.808Z,5.50
2017-08-24T09:19:04.249Z,5.23
2017-08-24T09:21:31.675Z,6.73
2017-08-24T09:23:59.125Z,7.47
2017-08-24T09:26:26.554Z,5.67
2017-08-24T09:28:54.051Z,5.80
2017-08-24T09:31:21.515Z,5.23
2017-08-24T09:33:48.962Z,5.77
2017-08-24T09:36:16.497Z,6.20
2017-08-24T09:38:43.956Z,5.77
2017-08-24T09:41:11.592Z,6.43
2017-08-24T09:43:39.136Z,6.37
2017-08-24T09:46:06.594Z,5.83
2017-08-24T09:48:34.044Z,6.07
2017-08-24T09:51:01.485Z,5.67
2017-08-24T09:53:28.927Z,6.57
2017-08-24T09:55:56.373Z,6.53
2017-08-24T09:58:23.816Z,6.13
2017-08-24T10:00:51.248Z,5.80
2017-08-24T10:03:18.684Z,6.10
2017-08-24T10:05:46.128Z,6.10
2017-08-24T10:08:13.575Z,5.90
2017-08-24T10:10:41.019Z,6.70
2017-08-24T10:13:08.460Z,7.00
2017-08-24T10:15:35.909Z,6.23
2017-08-24T10:18:03.348Z,6.50
2017-08-24T10:20:30.794Z,6.00
2017-08-24T10:22:58.253Z,6.40
2017-08-24T10:25:25.679Z,6.30
2017-08-24T10:27:53.127Z,6.73
2017-08-24T10:30:20.633Z,6.60
2017-08-24T10:32:48.009Z,6.47
2017-08-24T10:35:15.460Z,6.70
2017-08-24T10:37:42.892Z,6.97
2017-08-24T10:40:10.332Z,7.10
2017-08-24T10:42:37.775Z,6.97
2017-08-24T10:45:05.212Z,6.93
2017-08-24T10:47:32.659Z,7.00
2017-08-24T10:50:00.100Z,6.93
2017-08-24T10:52:27.568Z,7.17
2017-08-24T10:54:55.011Z,6.97
2017-08-24T10:57:22.467Z,6.20
2017-08-24T10:59:49.970Z,6.23
2017-08-24T11:02:17.396Z,6.90
2017-08-24T11:04:44.833Z,7.40
2017-08-24T11:07:12.267Z,7.27
2017-08-24T11:09:39.731Z,6.97
2017-08-24T11:12:07.172Z,6.37
2017-08-24T11:14:34.607Z,7.17
2017-08-24T11:17:02.045Z,7.40
2017-08-24T11:19:29.479Z,7.00
2017-08-24T11:21:56.924Z,7.00
2017-08-24T11:24:24.365Z,6.80
2017-08-24T11:26:51.812Z,6.23
2017-08-24T11:29:19.256Z,7.50
2017-08-24T11:31:46.696Z,6.67
2017-08-24T11:34:14.148Z,7.33
2017-08-24T11:36:41.584Z,7.00
2017-08-24T11:39:09.015Z,7.30
2017-08-24T11:41:36.467Z,7.00
2017-08-24T11:44:03.901Z,6.03
2017-08-24T11:46:31.348Z,6.10
2017-08-24T11:48:58.778Z,6.27
2017-08-24T11:51:26.207Z,6.20
2017-08-24T11:53:53.648Z,6.43
2017-08-24T11:56:21.080Z,6.00
2017-08-24T11:58:48.527Z,6.33
2017-08-24T12:01:15.963Z,6.17
2017-08-24T12:03:43.407Z,7.10
2017-08-24T12:06:10.843Z,6.10
2017-08-24T12:08:38.312Z,6.50
2017-08-24T12:11:05.747Z,6.17
2017-08-24T12:13:33.183Z,6.53
2017-08-24T12:16:00.624Z,7.10
2017-08-24T12:18:28.066Z,6.40
2017-08-24T12:20:55.496Z,6.40
2017-08-24T12:23:23.002Z,5.87
2017-08-24T12:25:50.451Z,7.13
2017-08-24T12:28:17.887Z,6.30
2017-08-24T12:30:45.316Z,7.87
2017-08-24T12:33:12.756Z,6.30
2017-08-24T12:35:40.188Z,5.80
2017-08-24T12:38:07.618Z,6.47
2017-08-24T12:40:35.779Z,6.80
2017-08-24T12:43:03.208Z,6.80
2017-08-24T12:45:30.645Z,6.27
2017-08-24T12:47:58.092Z,6.45
2017-08-24T12:50:25.538Z,6.97
2017-08-24T12:52:52.972Z,6.67
2017-08-24T12:55:20.415Z,6.30
2017-08-24T12:57:47.853Z,6.70
2017-08-24T13:00:15.295Z,5.80
2017-08-24T13:02:42.765Z,7.03
2017-08-24T13:05:10.212Z,5.77
2017-08-24T13:07:37.643Z,6.23
2017-08-24T13:10:05.090Z,5.30
2017-08-24T13:12:32.523Z,6.07
2017-08-24T13:14:59.965Z,5.70
2017-08-24T13:17:27.408Z,6.80
2017-08-24T13:19:54.846Z,6.30
2017-08-24T13:22:22.284Z,5.40
2017-08-24T13:24:49.768Z,6.17
2017-08-24T13:27:17.188Z,5.80
2017-08-24T13:29:44.624Z,5.30
2017-08-24T13:32:12.064Z,5.80
2017-08-24T13:34:39.505Z,5.37
2017-08-24T13:37:06.935Z,6.03
2017-08-24T13:39:34.393Z,5.30
2017-08-24T13:42:01.807Z,5.83
2017-08-24T13:44:29.243Z,5.27
2017-08-24T13:46:56.692Z,5.97
2017-08-24T13:49:24.131Z,6.00
2017-08-24T13:51:51.576Z,5.77
2017-08-24T13:54:19.015Z,5.93
2017-08-24T13:56:46.452Z,5.30
2017-08-24T13:59:13.887Z,5.90
2017-08-24T14:01:41.332Z,5.50
2017-08-24T14:04:08.762Z,5.00
2017-08-24T14:06:36.201Z,5.00
2017-08-24T14:09:03.637Z,5.30
2017-08-24T14:11:31.080Z,4.83
2017-08-24T14:13:58.527Z,4.60
2017-08-24T14:16:25.967Z,4.70
2017-08-24T14:18:53.392Z,5.60
2017-08-24T14:21:20.827Z,4.77
2017-08-24T14:23:48.266Z,4.67
2017-08-24T14:26:15.708Z,5.33
2017-08-24T14:28:43.136Z,4.67
2017-08-24T14:31:10.571Z,4.70
2017-08-24T14:33:38.007Z,5.20
2017-08-24T14:36:05.454Z,5.20
2017-08-24T14:38:32.889Z,4.97
2017-08-24T14:41:00.320Z,4.53
2017-08-24T14:43:27.751Z,4.80
2017-08-24T14:45:55.188Z,5.17
2017-08-24T14:48:22.627Z,4.50
2017-08-24T14:50:50.067Z,5.10
2017-08-24T14:53:17.505Z,5.70
2017-08-24T14:55:44.949Z,4.90
2017-08-24T14:58:12.390Z,5.50
2017-08-24T15:00:39.821Z,5.40
2017-08-24T15:03:07.257Z,5.07
2017-08-24T15:05:34.698Z,5.40
2017-08-24T15:08:02.138Z,4.63
2017-08-24T15:10:29.592Z,5.10
2017-08-24T15:12:57.037Z,5.57
2017-08-24T15:15:24.475Z,5.13
2017-08-24T15:17:51.920Z,5.37
2017-08-24T15:20:19.356Z,5.03
2017-08-24T15:22:46.801Z,4.80
2017-08-24T15:25:14.229Z,4.90
2017-08-24T15:27:41.671Z,5.53
2017-08-24T15:30:09.102Z,4.67
2017-08-24T15:32:36.555Z,5.23
2017-08-24T15:35:03.996Z,5.07
2017-08-24T15:37:31.439Z,4.03
2017-08-24T15:39:58.880Z,5.17
2017-08-24T15:42:26.314Z,4.53
2017-08-24T15:44:53.751Z,4.30
2017-08-24T15:47:21.195Z,5.57
2017-08-24T15:49:48.636Z,6.90
2017-08-24T15:52:16.066Z,4.30
2017-08-24T15:54:43.512Z,5.60
2017-08-24T15:57:10.951Z,4.80
2017-08-24T15:59:38.461Z,5.63
2017-08-24T16:02:05.909Z,5.60
2017-08-24T16:04:33.351Z,5.20
2017-08-24T16:07:00.797Z,5.60
2017-08-24T16:09:28.238Z,5.47
2017-08-24T16:11:55.678Z,5.53
2017-08-24T16:14:23.130Z,5.37
2017-08-24T16:16:50.571Z,6.67
2017-08-24T16:19:18.027Z,6.70
2017-08-24T16:21:45.462Z,6.37
2017-08-24T16:24:12.929Z,5.83
2017-08-24T16:26:40.373Z,6.05
2017-08-24T16:29:07.808Z,5.80
2017-08-24T16:31:35.238Z,5.73
2017-08-24T16:34:02.681Z,5.97
2017-08-24T16:36:30.127Z,6.33
2017-08-24T16:39:03.111Z,6.40
2017-08-24T16:41:30.549Z,6.57
2017-08-24T16:43:57.982Z,6.23
2017-08-24T16:46:25.420Z,6.20
2017-08-24T16:48:52.852Z,6.57
2017-08-24T16:51:20.293Z,6.47
2017-08-24T16:53:47.719Z,6.00
2017-08-24T16:56:15.167Z,6.83
2017-08-24T16:58:42.604Z,7.20
2017-08-24T17:01:10.043Z,6.50
2017-08-24T17:03:37.489Z,6.47
2017-08-24T17:06:04.932Z,7.47
2017-08-24T17:08:32.364Z,7.67
2017-08-24T17:10:59.809Z,7.77
2017-08-24T17:13:27.235Z,8.00
2017-08-24T17:15:54.683Z,7.50
2017-08-24T17:18:22.118Z,7.77
2017-08-24T17:20:49.573Z,8.27
2017-08-24T17:23:17.011Z,8.07
2017-08-24T17:25:44.448Z,8.50
2017-08-24T17:28:11.875Z,8.73
2017-08-24T17:30:39.319Z,8.60
2017-08-24T17:33:06.795Z,8.60
2017-08-24T17:35:34.230Z,8.33
2017-08-24T17:38:01.672Z,9.10
2017-08-24T17:40:29.124Z,9.40
2017-08-24T17:42:56.560Z,9.17
2017-08-24T17:45:24.003Z,8.70
2017-08-24T17:47:51.454Z,9.30
2017-08-24T17:50:18.886Z,9.23
2017-08-24T17:52:46.336Z,10.53
2017-08-24T17:55:13.775Z,8.80
2017-08-24T17:57:41.221Z,9.70
2017-08-24T18:00:08.655Z,9.23
2017-08-24T18:02:36.101Z,9.67
2017-08-24T18:05:03.540Z,10.23
2017-08-24T18:07:30.991Z,10.40
2017-08-24T18:09:58.435Z,10.00
2017-08-24T18:12:25.883Z,10.20
2017-08-24T18:14:53.332Z,9.90
2017-08-24T18:17:20.779Z,10.00
2017-08-24T18:19:48.215Z,9.57
2017-08-24T18:22:15.671Z,10.90
2017-08-24T18:24:43.118Z,9.73
2017-08-24T18:27:10.571Z,8.40
2017-08-24T18:29:38.012Z,10.23
2017-08-24T18:32:05.459Z,8.70
2017-08-24T18:34:32.896Z,9.33
2017-08-24T18:37:00.332Z,8.57
2017-08-24T18:39:27.822Z,8.55
2017-08-24T18:41:55.315Z,7.40
2017-08-24T18:44:22.811Z,6.30
2017-08-24T18:46:50.279Z,5.97
2017-08-24T18:49:17.811Z,6.13
2017-08-24T18:51:45.279Z,5.60
2017-08-24T18:54:12.868Z,5.90
2017-08-24T18:56:40.315Z,5.40
2017-08-24T18:59:07.886Z,5.17
2017-08-24T19:01:35.339Z,4.90
2017-08-24T19:04:02.896Z,5.50
2017-08-24T19:06:30.337Z,4.87
2017-08-24T19:08:57.914Z,6.10
2017-08-24T19:11:26.397Z,5.40
2017-08-24T19:13:54.033Z,5.70
2017-08-24T19:16:21.560Z,4.60
2017-08-24T19:18:49.086Z,5.43
2017-08-24T19:21:16.511Z,5.47
2017-08-24T19:23:43.943Z,5.40
2017-08-24T19:26:11.384Z,4.83
2017-08-24T19:28:38.825Z,3.90
2017-08-24T19:31:06.266Z,4.87
2017-08-24T19:33:33.709Z,4.30
2017-08-24T19:36:01.147Z,3.90
2017-08-24T19:38:30.229Z,4.22
2017-08-24T19:40:58.156Z,3.87
2017-08-24T19:43:49.364Z,4.57
2017-08-24T19:46:20.084Z,5.57
2017-08-24T19:49:04.261Z,4.50
2017-08-24T20:00:23.919Z,3.67
2017-08-24T20:03:02.427Z,4.37
2017-08-24T20:11:33.426Z,4.43
2017-08-24T20:14:02.654Z,4.00
2017-08-24T20:27:54.310Z,3.73
2017-08-24T20:30:27.388Z,3.40
2017-08-24T20:32:57.958Z,3.30
2017-08-24T20:35:28.080Z,3.50
2017-08-24T20:37:56.684Z,4.00
2017-08-24T20:40:34.971Z,3.80
2017-08-24T20:43:17.583Z,3.50
2017-08-24T20:45:46.950Z,4.20
2017-08-24T20:48:16.981Z,3.33
2017-08-24T20:53:19.818Z,4.67
2017-08-24T20:55:50.296Z,3.67
2017-08-24T20:58:18.843Z,3.87
2017-08-24T21:27:47.608Z,3.83
2017-08-24T21:33:16.587Z,3.33
2017-08-24T22:56:31.678Z,4.30
